sensor_id;sensor_type;location;lat;lon;timestamp;temperature;humidity
64685;DHT22;51109;47.414;18.954;2024-02-04T00:01:25;9.20;99.90
64685;DHT22;51109;47.414;18.954;2024-02-04T00:03:51;9.20;99.90
64685;DHT22;51109;47.414;18.954;2024-02-04T00:06:17;9.40;99.90
64685;DHT22;51109;47.414;18.954;2024-02-04T00:08:42;9.40;99.90
64685;DHT22;51109;47.414;18.954;2024-02-04T00:11:08;9.40;99.90
64685;DHT22;51109;47.414;18.954;2024-02-04T00:13:38;9.40;99.90
64685;DHT22;51109;47.414;18.954;2024-02-04T00:16:04;9.50;99.90
64685;DHT22;51109;47.414;18.954;2024-02-04T00:18:31;9.50;99.90
64685;DHT22;51109;47.414;18.954;2024-02-04T00:20:57;9.40;99.90
64685;DHT22;51109;47.414;18.954;2024-02-04T00:23:23;9.40;99.90
64685;DHT22;51109;47.414;18.954;2024-02-04T00:25:49;9.40;99.90
64685;DHT22;51109;47.414;18.954;2024-02-04T00:28:15;9.50;99.90
64685;DHT22;51109;47.414;18.954;2024-02-04T00:30:41;9.50;99.90
64685;DHT22;51109;47.414;18.954;2024-02-04T00:33:07;9.50;99.90
64685;DHT22;51109;47.414;18.954;2024-02-04T00:35:32;9.60;99.90
64685;DHT22;51109;47.414;18.954;2024-02-04T00:37:58;9.60;99.90
64685;DHT22;51109;47.414;18.954;2024-02-04T00:40:24;9.50;99.90
64685;DHT22;51109;47.414;18.954;2024-02-04T00:42:52;9.50;99.90
64685;DHT22;51109;47.414;18.954;2024-02-04T00:45:17;9.60;99.90
64685;DHT22;51109;47.414;18.954;2024-02-04T00:47:43;9.50;99.90
64685;DHT22;51109;47.414;18.954;2024-02-04T00:50:09;9.50;99.90
64685;DHT22;51109;47.414;18.954;2024-02-04T00:52:35;9.50;99.90
64685;DHT22;51109;47.414;18.954;2024-02-04T00:55:01;9.50;99.90
64685;DHT22;51109;47.414;18.954;2024-02-04T00:57:26;9.50;99.90
64685;DHT22;51109;47.414;18.954;2024-02-04T00:59:53;9.40;99.90
64685;DHT22;51109;47.414;18.954;2024-02-04T01:02:19;9.40;99.90
64685;DHT22;51109;47.414;18.954;2024-02-04T01:04:44;9.40;99.90
64685;DHT22;51109;47.414;18.954;2024-02-04T01:07:10;9.30;99.90
64685;DHT22;51109;47.414;18.954;2024-02-04T01:09:36;9.30;99.90
64685;DHT22;51109;47.414;18.954;2024-02-04T01:12:02;9.30;99.90
64685;DHT22;51109;47.414;18.954;2024-02-04T01:14:28;9.20;99.90
64685;DHT22;51109;47.414;18.954;2024-02-04T01:16:54;9.20;99.90
64685;DHT22;51109;47.414;18.954;2024-02-04T01:19:20;9.10;99.90
64685;DHT22;51109;47.414;18.954;2024-02-04T01:21:46;9.00;99.90
64685;DHT22;51109;47.414;18.954;2024-02-04T01:24:11;8.90;99.90
64685;DHT22;51109;47.414;18.954;2024-02-04T01:26:37;9.10;99.90
64685;DHT22;51109;47.414;18.954;2024-02-04T01:29:03;9.10;99.90
64685;DHT22;51109;47.414;18.954;2024-02-04T01:31:29;9.10;99.90
64685;DHT22;51109;47.414;18.954;2024-02-04T01:33:55;9.10;99.90
64685;DHT22;51109;47.414;18.954;2024-02-04T01:36:20;8.90;99.90
64685;DHT22;51109;47.414;18.954;2024-02-04T01:38:46;9.00;99.90
64685;DHT22;51109;47.414;18.954;2024-02-04T01:41:12;8.90;99.90
64685;DHT22;51109;47.414;18.954;2024-02-04T01:43:37;8.90;99.90
64685;DHT22;51109;47.414;18.954;2024-02-04T01:46:03;8.90;99.90
64685;DHT22;51109;47.414;18.954;2024-02-04T01:48:29;8.80;99.90
64685;DHT22;51109;47.414;18.954;2024-02-04T01:50:56;8.70;99.90
64685;DHT22;51109;47.414;18.954;2024-02-04T01:53:24;8.70;99.90
64685;DHT22;51109;47.414;18.954;2024-02-04T01:55:51;8.70;99.90
64685;DHT22;51109;47.414;18.954;2024-02-04T01:58:17;8.60;99.90
64685;DHT22;51109;47.414;18.954;2024-02-04T02:00:43;8.60;99.90
64685;DHT22;51109;47.414;18.954;2024-02-04T02:03:12;8.60;99.90
64685;DHT22;51109;47.414;18.954;2024-02-04T02:05:44;9.30;99.90
64685;DHT22;51109;47.414;18.954;2024-02-04T02:08:10;8.80;99.90
64685;DHT22;51109;47.414;18.954;2024-02-04T02:10:37;8.70;99.90
64685;DHT22;51109;47.414;18.954;2024-02-04T02:13:11;8.60;99.90
64685;DHT22;51109;47.414;18.954;2024-02-04T02:15:45;8.70;99.90
64685;DHT22;51109;47.414;18.954;2024-02-04T02:23:43;8.80;99.90
64685;DHT22;51109;47.414;18.954;2024-02-04T02:26:13;8.80;99.90
64685;DHT22;51109;47.414;18.954;2024-02-04T02:28:40;9.10;99.90
64685;DHT22;51109;47.414;18.954;2024-02-04T02:31:06;8.70;99.90
64685;DHT22;51109;47.414;18.954;2024-02-04T02:33:32;8.60;99.90
64685;DHT22;51109;47.414;18.954;2024-02-04T02:35:59;8.60;99.90
64685;DHT22;51109;47.414;18.954;2024-02-04T02:41:18;8.70;99.90
64685;DHT22;51109;47.414;18.954;2024-02-04T02:43:46;8.60;99.90
64685;DHT22;51109;47.414;18.954;2024-02-04T02:46:13;8.60;99.90
64685;DHT22;51109;47.414;18.954;2024-02-04T02:48:39;8.60;99.90
64685;DHT22;51109;47.414;18.954;2024-02-04T02:51:05;8.50;99.90
64685;DHT22;51109;47.414;18.954;2024-02-04T02:53:31;8.50;99.90
64685;DHT22;51109;47.414;18.954;2024-02-04T02:55:57;8.50;99.90
64685;DHT22;51109;47.414;18.954;2024-02-04T02:58:22;8.50;99.90
64685;DHT22;51109;47.414;18.954;2024-02-04T03:00:48;8.40;99.90
64685;DHT22;51109;47.414;18.954;2024-02-04T03:03:14;8.40;99.90
64685;DHT22;51109;47.414;18.954;2024-02-04T03:05:40;8.30;99.90
64685;DHT22;51109;47.414;18.954;2024-02-04T03:08:05;8.30;99.90
64685;DHT22;51109;47.414;18.954;2024-02-04T03:10:31;8.20;99.90
64685;DHT22;51109;47.414;18.954;2024-02-04T03:12:57;8.20;99.90
64685;DHT22;51109;47.414;18.954;2024-02-04T03:15:23;8.10;99.90
64685;DHT22;51109;47.414;18.954;2024-02-04T03:17:48;8.00;99.90
64685;DHT22;51109;47.414;18.954;2024-02-04T03:20:15;8.00;99.90
64685;DHT22;51109;47.414;18.954;2024-02-04T03:22:41;7.90;99.90
64685;DHT22;51109;47.414;18.954;2024-02-04T03:25:07;7.90;99.90
64685;DHT22;51109;47.414;18.954;2024-02-04T03:27:32;7.90;99.90
64685;DHT22;51109;47.414;18.954;2024-02-04T03:29:58;7.90;99.90
64685;DHT22;51109;47.414;18.954;2024-02-04T03:32:24;8.00;99.90
64685;DHT22;51109;47.414;18.954;2024-02-04T03:34:50;8.20;99.90
64685;DHT22;51109;47.414;18.954;2024-02-04T03:37:15;8.30;99.90
64685;DHT22;51109;47.414;18.954;2024-02-04T03:39:41;8.40;99.90
64685;DHT22;51109;47.414;18.954;2024-02-04T03:42:07;8.40;99.90
64685;DHT22;51109;47.414;18.954;2024-02-04T03:44:33;8.40;99.90
64685;DHT22;51109;47.414;18.954;2024-02-04T03:46:58;8.50;99.90
64685;DHT22;51109;47.414;18.954;2024-02-04T03:49:24;8.40;99.90
64685;DHT22;51109;47.414;18.954;2024-02-04T03:51:50;8.40;99.90
64685;DHT22;51109;47.414;18.954;2024-02-04T03:54:16;8.40;99.90
64685;DHT22;51109;47.414;18.954;2024-02-04T03:56:41;8.30;99.90
64685;DHT22;51109;47.414;18.954;2024-02-04T03:59:08;8.30;99.90
64685;DHT22;51109;47.414;18.954;2024-02-04T04:01:35;8.30;99.90
64685;DHT22;51109;47.414;18.954;2024-02-04T04:04:01;8.20;99.90
64685;DHT22;51109;47.414;18.954;2024-02-04T04:06:26;8.30;99.90
64685;DHT22;51109;47.414;18.954;2024-02-04T04:08:52;8.30;99.90
64685;DHT22;51109;47.414;18.954;2024-02-04T04:11:18;8.30;99.90
64685;DHT22;51109;47.414;18.954;2024-02-04T04:13:44;8.20;99.90
64685;DHT22;51109;47.414;18.954;2024-02-04T04:16:09;8.30;99.90
64685;DHT22;51109;47.414;18.954;2024-02-04T04:18:35;8.30;99.90
64685;DHT22;51109;47.414;18.954;2024-02-04T04:21:01;8.30;99.90
64685;DHT22;51109;47.414;18.954;2024-02-04T04:23:27;8.30;99.90
64685;DHT22;51109;47.414;18.954;2024-02-04T04:25:52;8.30;99.90
64685;DHT22;51109;47.414;18.954;2024-02-04T04:28:18;8.30;99.90
64685;DHT22;51109;47.414;18.954;2024-02-04T04:30:44;8.30;99.90
64685;DHT22;51109;47.414;18.954;2024-02-04T04:33:10;8.40;99.90
64685;DHT22;51109;47.414;18.954;2024-02-04T04:35:37;8.30;99.90
64685;DHT22;51109;47.414;18.954;2024-02-04T04:38:04;8.30;99.90
64685;DHT22;51109;47.414;18.954;2024-02-04T04:40:29;8.30;99.90
64685;DHT22;51109;47.414;18.954;2024-02-04T04:42:55;8.30;99.90
64685;DHT22;51109;47.414;18.954;2024-02-04T04:45:21;8.30;99.90
64685;DHT22;51109;47.414;18.954;2024-02-04T04:47:47;8.30;99.90
64685;DHT22;51109;47.414;18.954;2024-02-04T04:50:13;8.20;99.90
64685;DHT22;51109;47.414;18.954;2024-02-04T04:52:38;8.20;99.90
64685;DHT22;51109;47.414;18.954;2024-02-04T04:55:04;8.20;99.90
64685;DHT22;51109;47.414;18.954;2024-02-04T04:57:30;8.20;99.90
64685;DHT22;51109;47.414;18.954;2024-02-04T04:59:56;8.20;99.90
64685;DHT22;51109;47.414;18.954;2024-02-04T05:02:24;8.20;99.90
64685;DHT22;51109;47.414;18.954;2024-02-04T05:04:50;8.30;99.90
64685;DHT22;51109;47.414;18.954;2024-02-04T05:07:15;8.30;99.90
64685;DHT22;51109;47.414;18.954;2024-02-04T05:09:41;8.30;99.90
64685;DHT22;51109;47.414;18.954;2024-02-04T05:12:08;8.40;99.90
64685;DHT22;51109;47.414;18.954;2024-02-04T05:14:35;8.40;99.90
64685;DHT22;51109;47.414;18.954;2024-02-04T05:17:01;8.30;99.90
64685;DHT22;51109;47.414;18.954;2024-02-04T05:19:27;8.10;99.90
64685;DHT22;51109;47.414;18.954;2024-02-04T05:21:52;8.10;99.90
64685;DHT22;51109;47.414;18.954;2024-02-04T05:24:18;8.10;99.90
64685;DHT22;51109;47.414;18.954;2024-02-04T05:26:44;8.10;99.90
64685;DHT22;51109;47.414;18.954;2024-02-04T05:29:10;8.20;99.90
64685;DHT22;51109;47.414;18.954;2024-02-04T05:31:43;8.10;99.90
64685;DHT22;51109;47.414;18.954;2024-02-04T05:34:10;8.10;99.90
64685;DHT22;51109;47.414;18.954;2024-02-04T05:36:36;8.00;99.90
64685;DHT22;51109;47.414;18.954;2024-02-04T05:39:12;8.00;99.90
64685;DHT22;51109;47.414;18.954;2024-02-04T05:41:38;8.00;99.90
64685;DHT22;51109;47.414;18.954;2024-02-04T05:44:04;8.10;99.90
64685;DHT22;51109;47.414;18.954;2024-02-04T05:46:30;8.00;99.90
64685;DHT22;51109;47.414;18.954;2024-02-04T05:48:56;7.90;99.90
64685;DHT22;51109;47.414;18.954;2024-02-04T05:51:22;7.90;99.90
64685;DHT22;51109;47.414;18.954;2024-02-04T05:53:48;7.90;99.90
64685;DHT22;51109;47.414;18.954;2024-02-04T05:56:14;7.90;99.90
64685;DHT22;51109;47.414;18.954;2024-02-04T05:58:40;7.90;99.90
64685;DHT22;51109;47.414;18.954;2024-02-04T06:01:06;7.90;99.90
64685;DHT22;51109;47.414;18.954;2024-02-04T06:03:32;7.90;99.90
64685;DHT22;51109;47.414;18.954;2024-02-04T06:05:57;7.80;99.90
64685;DHT22;51109;47.414;18.954;2024-02-04T06:08:23;7.70;99.90
64685;DHT22;51109;47.414;18.954;2024-02-04T06:10:49;7.70;99.90
64685;DHT22;51109;47.414;18.954;2024-02-04T06:13:15;7.60;99.90
64685;DHT22;51109;47.414;18.954;2024-02-04T06:15:40;7.70;99.90
64685;DHT22;51109;47.414;18.954;2024-02-04T06:18:06;7.80;99.90
64685;DHT22;51109;47.414;18.954;2024-02-04T06:20:32;7.70;99.90
64685;DHT22;51109;47.414;18.954;2024-02-04T06:22:58;7.70;99.90
64685;DHT22;51109;47.414;18.954;2024-02-04T06:25:24;7.80;99.90
64685;DHT22;51109;47.414;18.954;2024-02-04T06:27:49;7.80;99.90
64685;DHT22;51109;47.414;18.954;2024-02-04T06:30:15;7.70;99.90
64685;DHT22;51109;47.414;18.954;2024-02-04T06:32:42;7.70;99.90
64685;DHT22;51109;47.414;18.954;2024-02-04T06:35:08;7.80;99.90
64685;DHT22;51109;47.414;18.954;2024-02-04T06:37:33;7.80;99.90
64685;DHT22;51109;47.414;18.954;2024-02-04T06:39:59;7.80;99.90
64685;DHT22;51109;47.414;18.954;2024-02-04T06:42:25;7.90;99.90
64685;DHT22;51109;47.414;18.954;2024-02-04T06:44:51;8.00;99.90
64685;DHT22;51109;47.414;18.954;2024-02-04T06:47:16;8.10;99.90
64685;DHT22;51109;47.414;18.954;2024-02-04T06:49:45;8.00;99.90
64685;DHT22;51109;47.414;18.954;2024-02-04T06:52:11;8.00;99.90
64685;DHT22;51109;47.414;18.954;2024-02-04T06:54:37;8.00;99.90
64685;DHT22;51109;47.414;18.954;2024-02-04T06:57:03;8.10;99.90
64685;DHT22;51109;47.414;18.954;2024-02-04T06:59:28;8.10;99.90
64685;DHT22;51109;47.414;18.954;2024-02-04T07:01:54;8.30;99.90
64685;DHT22;51109;47.414;18.954;2024-02-04T07:04:20;8.40;99.90
64685;DHT22;51109;47.414;18.954;2024-02-04T07:06:50;8.40;99.90
64685;DHT22;51109;47.414;18.954;2024-02-04T07:09:17;8.50;99.90
64685;DHT22;51109;47.414;18.954;2024-02-04T07:11:43;8.60;99.90
64685;DHT22;51109;47.414;18.954;2024-02-04T07:14:09;8.60;99.90
64685;DHT22;51109;47.414;18.954;2024-02-04T07:16:34;8.70;99.90
64685;DHT22;51109;47.414;18.954;2024-02-04T07:19:00;8.70;99.90
64685;DHT22;51109;47.414;18.954;2024-02-04T07:21:26;8.70;99.90
64685;DHT22;51109;47.414;18.954;2024-02-04T07:23:52;8.70;99.90
64685;DHT22;51109;47.414;18.954;2024-02-04T07:26:18;8.70;99.90
64685;DHT22;51109;47.414;18.954;2024-02-04T07:28:43;8.70;99.90
64685;DHT22;51109;47.414;18.954;2024-02-04T07:31:10;8.80;99.90
64685;DHT22;51109;47.414;18.954;2024-02-04T07:33:36;8.80;99.90
64685;DHT22;51109;47.414;18.954;2024-02-04T07:36:02;8.80;99.90
64685;DHT22;51109;47.414;18.954;2024-02-04T07:38:28;8.80;99.90
64685;DHT22;51109;47.414;18.954;2024-02-04T07:40:54;8.90;99.90
64685;DHT22;51109;47.414;18.954;2024-02-04T07:43:21;8.80;99.90
64685;DHT22;51109;47.414;18.954;2024-02-04T07:45:47;8.90;99.90
64685;DHT22;51109;47.414;18.954;2024-02-04T07:48:13;8.90;99.90
64685;DHT22;51109;47.414;18.954;2024-02-04T07:50:39;9.00;99.90
64685;DHT22;51109;47.414;18.954;2024-02-04T07:53:05;9.00;99.90
64685;DHT22;51109;47.414;18.954;2024-02-04T07:55:30;9.00;99.90
64685;DHT22;51109;47.414;18.954;2024-02-04T07:57:56;9.10;99.90
64685;DHT22;51109;47.414;18.954;2024-02-04T08:00:22;9.20;99.90
64685;DHT22;51109;47.414;18.954;2024-02-04T08:02:48;9.10;99.90
64685;DHT22;51109;47.414;18.954;2024-02-04T08:05:13;9.20;99.90
64685;DHT22;51109;47.414;18.954;2024-02-04T08:07:39;9.20;99.90
64685;DHT22;51109;47.414;18.954;2024-02-04T08:10:07;9.20;99.90
64685;DHT22;51109;47.414;18.954;2024-02-04T08:12:43;9.20;99.90
64685;DHT22;51109;47.414;18.954;2024-02-04T08:15:09;9.20;99.90
64685;DHT22;51109;47.414;18.954;2024-02-04T08:17:35;9.50;99.90
64685;DHT22;51109;47.414;18.954;2024-02-04T08:20:01;9.30;99.90
64685;DHT22;51109;47.414;18.954;2024-02-04T08:22:27;9.30;99.90
64685;DHT22;51109;47.414;18.954;2024-02-04T08:24:52;9.30;99.90
64685;DHT22;51109;47.414;18.954;2024-02-04T08:27:18;9.30;99.90
64685;DHT22;51109;47.414;18.954;2024-02-04T08:29:44;9.40;99.90
64685;DHT22;51109;47.414;18.954;2024-02-04T08:32:10;9.40;99.90
64685;DHT22;51109;47.414;18.954;2024-02-04T08:34:36;9.50;99.90
64685;DHT22;51109;47.414;18.954;2024-02-04T08:37:02;9.50;99.90
64685;DHT22;51109;47.414;18.954;2024-02-04T08:39:28;9.50;99.90
64685;DHT22;51109;47.414;18.954;2024-02-04T08:41:55;9.50;99.90
64685;DHT22;51109;47.414;18.954;2024-02-04T08:44:21;9.50;99.90
64685;DHT22;51109;47.414;18.954;2024-02-04T08:46:47;9.50;99.90
64685;DHT22;51109;47.414;18.954;2024-02-04T08:49:13;9.50;99.90
64685;DHT22;51109;47.414;18.954;2024-02-04T08:51:38;9.60;99.90
64685;DHT22;51109;47.414;18.954;2024-02-04T08:54:04;9.60;99.90
64685;DHT22;51109;47.414;18.954;2024-02-04T08:56:30;9.60;99.90
64685;DHT22;51109;47.414;18.954;2024-02-04T08:58:56;9.60;99.90
64685;DHT22;51109;47.414;18.954;2024-02-04T09:01:22;9.70;99.90
64685;DHT22;51109;47.414;18.954;2024-02-04T09:03:48;9.70;99.90
64685;DHT22;51109;47.414;18.954;2024-02-04T09:06:13;9.80;99.90
64685;DHT22;51109;47.414;18.954;2024-02-04T09:08:39;9.80;99.90
64685;DHT22;51109;47.414;18.954;2024-02-04T09:11:05;9.80;99.90
64685;DHT22;51109;47.414;18.954;2024-02-04T09:13:30;9.90;99.90
64685;DHT22;51109;47.414;18.954;2024-02-04T09:15:56;9.90;99.90
64685;DHT22;51109;47.414;18.954;2024-02-04T09:18:22;9.90;99.90
64685;DHT22;51109;47.414;18.954;2024-02-04T09:20:48;9.90;99.90
64685;DHT22;51109;47.414;18.954;2024-02-04T09:23:13;10.00;99.90
64685;DHT22;51109;47.414;18.954;2024-02-04T09:25:39;10.00;99.90
64685;DHT22;51109;47.414;18.954;2024-02-04T09:28:05;10.00;99.90
64685;DHT22;51109;47.414;18.954;2024-02-04T09:30:31;10.10;99.90
64685;DHT22;51109;47.414;18.954;2024-02-04T09:32:57;10.10;99.90
64685;DHT22;51109;47.414;18.954;2024-02-04T09:35:23;10.10;99.90
64685;DHT22;51109;47.414;18.954;2024-02-04T09:37:48;10.20;99.90
64685;DHT22;51109;47.414;18.954;2024-02-04T09:40:14;10.30;99.90
64685;DHT22;51109;47.414;18.954;2024-02-04T09:42:40;10.30;99.90
64685;DHT22;51109;47.414;18.954;2024-02-04T09:45:06;10.30;99.90
64685;DHT22;51109;47.414;18.954;2024-02-04T09:47:34;10.30;99.90
64685;DHT22;51109;47.414;18.954;2024-02-04T09:50:02;10.40;99.90
64685;DHT22;51109;47.414;18.954;2024-02-04T09:52:33;10.50;99.90
64685;DHT22;51109;47.414;18.954;2024-02-04T09:55:00;10.50;99.90
64685;DHT22;51109;47.414;18.954;2024-02-04T09:57:29;10.50;99.90
64685;DHT22;51109;47.414;18.954;2024-02-04T09:59:56;10.50;99.90
64685;DHT22;51109;47.414;18.954;2024-02-04T10:02:22;10.50;99.90
64685;DHT22;51109;47.414;18.954;2024-02-04T10:04:49;10.70;99.90
64685;DHT22;51109;47.414;18.954;2024-02-04T10:07:15;10.70;99.90
64685;DHT22;51109;47.414;18.954;2024-02-04T10:09:44;10.80;99.90
64685;DHT22;51109;47.414;18.954;2024-02-04T10:12:10;10.80;99.90
64685;DHT22;51109;47.414;18.954;2024-02-04T10:14:36;10.90;99.90
64685;DHT22;51109;47.414;18.954;2024-02-04T10:17:03;11.00;99.90
64685;DHT22;51109;47.414;18.954;2024-02-04T10:19:30;11.00;99.90
64685;DHT22;51109;47.414;18.954;2024-02-04T10:22:03;11.10;99.90
64685;DHT22;51109;47.414;18.954;2024-02-04T10:24:30;11.20;99.90
64685;DHT22;51109;47.414;18.954;2024-02-04T10:26:58;11.20;99.90
64685;DHT22;51109;47.414;18.954;2024-02-04T10:29:25;11.30;99.90
64685;DHT22;51109;47.414;18.954;2024-02-04T10:31:55;11.50;99.90
64685;DHT22;51109;47.414;18.954;2024-02-04T10:34:21;11.50;99.90
64685;DHT22;51109;47.414;18.954;2024-02-04T10:36:47;11.50;99.90
64685;DHT22;51109;47.414;18.954;2024-02-04T10:39:13;11.60;99.90
64685;DHT22;51109;47.414;18.954;2024-02-04T10:41:49;11.60;99.90
64685;DHT22;51109;47.414;18.954;2024-02-04T10:44:24;11.60;99.90
64685;DHT22;51109;47.414;18.954;2024-02-04T10:46:52;11.60;99.90
64685;DHT22;51109;47.414;18.954;2024-02-04T10:49:19;11.60;99.90
64685;DHT22;51109;47.414;18.954;2024-02-04T10:51:46;11.60;99.90
64685;DHT22;51109;47.414;18.954;2024-02-04T10:54:15;11.60;99.90
64685;DHT22;51109;47.414;18.954;2024-02-04T10:56:45;11.60;99.90
64685;DHT22;51109;47.414;18.954;2024-02-04T10:59:17;11.60;99.90
64685;DHT22;51109;47.414;18.954;2024-02-04T11:01:45;11.70;99.90
64685;DHT22;51109;47.414;18.954;2024-02-04T11:04:14;11.60;99.90
64685;DHT22;51109;47.414;18.954;2024-02-04T11:06:42;11.70;99.90
64685;DHT22;51109;47.414;18.954;2024-02-04T11:09:09;11.70;99.90
64685;DHT22;51109;47.414;18.954;2024-02-04T11:11:38;11.70;99.90
64685;DHT22;51109;47.414;18.954;2024-02-04T11:14:10;11.80;99.90
64685;DHT22;51109;47.414;18.954;2024-02-04T11:27:16;11.90;99.90
64685;DHT22;51109;47.414;18.954;2024-02-04T11:29:42;12.00;99.90
64685;DHT22;51109;47.414;18.954;2024-02-04T11:32:07;12.20;99.90
64685;DHT22;51109;47.414;18.954;2024-02-04T11:34:34;12.40;99.90
64685;DHT22;51109;47.414;18.954;2024-02-04T11:37:00;12.60;99.90
64685;DHT22;51109;47.414;18.954;2024-02-04T11:39:29;12.70;99.90
64685;DHT22;51109;47.414;18.954;2024-02-04T11:41:55;12.80;99.90
64685;DHT22;51109;47.414;18.954;2024-02-04T11:44:22;12.80;99.90
64685;DHT22;51109;47.414;18.954;2024-02-04T11:46:49;13.00;99.90
64685;DHT22;51109;47.414;18.954;2024-02-04T11:49:18;13.10;99.90
64685;DHT22;51109;47.414;18.954;2024-02-04T11:51:52;13.10;99.90
64685;DHT22;51109;47.414;18.954;2024-02-04T11:54:19;13.20;99.90
64685;DHT22;51109;47.414;18.954;2024-02-04T11:56:47;13.40;99.90
64685;DHT22;51109;47.414;18.954;2024-02-04T11:59:24;13.60;99.90
64685;DHT22;51109;47.414;18.954;2024-02-04T12:01:56;13.60;99.90
64685;DHT22;51109;47.414;18.954;2024-02-04T12:04:23;13.60;99.90
64685;DHT22;51109;47.414;18.954;2024-02-04T12:06:50;13.60;99.90
64685;DHT22;51109;47.414;18.954;2024-02-04T12:09:19;13.70;99.90
64685;DHT22;51109;47.414;18.954;2024-02-04T12:11:45;13.70;99.90
64685;DHT22;51109;47.414;18.954;2024-02-04T12:14:13;13.80;99.90
64685;DHT22;51109;47.414;18.954;2024-02-04T12:16:41;13.80;99.90
64685;DHT22;51109;47.414;18.954;2024-02-04T12:19:07;13.60;99.90
64685;DHT22;51109;47.414;18.954;2024-02-04T12:21:33;13.70;99.90
64685;DHT22;51109;47.414;18.954;2024-02-04T12:23:59;13.60;99.90
64685;DHT22;51109;47.414;18.954;2024-02-04T12:26:26;13.70;99.90
64685;DHT22;51109;47.414;18.954;2024-02-04T12:28:52;13.70;99.90
64685;DHT22;51109;47.414;18.954;2024-02-04T12:31:19;13.60;99.90
64685;DHT22;51109;47.414;18.954;2024-02-04T12:33:59;13.50;99.90
64685;DHT22;51109;47.414;18.954;2024-02-04T12:36:28;13.40;99.90
64685;DHT22;51109;47.414;18.954;2024-02-04T12:38:56;13.30;99.90
64685;DHT22;51109;47.414;18.954;2024-02-04T12:41:23;13.50;99.90
64685;DHT22;51109;47.414;18.954;2024-02-04T12:43:56;13.20;99.90
64685;DHT22;51109;47.414;18.954;2024-02-04T12:46:22;13.20;99.90
64685;DHT22;51109;47.414;18.954;2024-02-04T12:48:55;13.20;99.90
64685;DHT22;51109;47.414;18.954;2024-02-04T12:51:29;13.40;99.90
64685;DHT22;51109;47.414;18.954;2024-02-04T12:54:08;13.30;99.90
64685;DHT22;51109;47.414;18.954;2024-02-04T12:59:08;13.30;99.90
64685;DHT22;51109;47.414;18.954;2024-02-04T13:01:36;13.10;99.90
64685;DHT22;51109;47.414;18.954;2024-02-04T13:04:02;13.20;99.90
64685;DHT22;51109;47.414;18.954;2024-02-04T13:06:28;13.10;99.90
64685;DHT22;51109;47.414;18.954;2024-02-04T13:08:55;13.20;99.90
64685;DHT22;51109;47.414;18.954;2024-02-04T13:11:25;13.10;99.90
64685;DHT22;51109;47.414;18.954;2024-02-04T13:13:51;13.00;99.90
64685;DHT22;51109;47.414;18.954;2024-02-04T13:16:17;12.90;99.90
64685;DHT22;51109;47.414;18.954;2024-02-04T13:18:52;12.90;99.90
64685;DHT22;51109;47.414;18.954;2024-02-04T13:21:18;12.90;99.90
64685;DHT22;51109;47.414;18.954;2024-02-04T13:23:45;12.80;99.90
64685;DHT22;51109;47.414;18.954;2024-02-04T13:26:11;12.80;99.90
64685;DHT22;51109;47.414;18.954;2024-02-04T13:28:38;12.70;99.90
64685;DHT22;51109;47.414;18.954;2024-02-04T13:31:04;12.60;99.90
64685;DHT22;51109;47.414;18.954;2024-02-04T13:33:30;12.60;99.90
64685;DHT22;51109;47.414;18.954;2024-02-04T13:35:57;12.60;99.90
64685;DHT22;51109;47.414;18.954;2024-02-04T13:38:23;12.60;99.90
64685;DHT22;51109;47.414;18.954;2024-02-04T13:40:48;12.70;99.90
64685;DHT22;51109;47.414;18.954;2024-02-04T13:43:14;12.70;99.90
64685;DHT22;51109;47.414;18.954;2024-02-04T13:45:40;12.80;99.90
64685;DHT22;51109;47.414;18.954;2024-02-04T13:48:06;12.70;99.90
64685;DHT22;51109;47.414;18.954;2024-02-04T13:50:33;12.60;99.90
64685;DHT22;51109;47.414;18.954;2024-02-04T13:52:58;12.60;99.90
64685;DHT22;51109;47.414;18.954;2024-02-04T13:55:25;12.70;99.90
64685;DHT22;51109;47.414;18.954;2024-02-04T13:57:50;12.70;99.90
64685;DHT22;51109;47.414;18.954;2024-02-04T14:00:16;12.70;99.90
64685;DHT22;51109;47.414;18.954;2024-02-04T14:02:43;12.70;99.90
64685;DHT22;51109;47.414;18.954;2024-02-04T14:05:09;12.70;99.90
64685;DHT22;51109;47.414;18.954;2024-02-04T14:07:36;12.70;99.90
64685;DHT22;51109;47.414;18.954;2024-02-04T14:10:02;12.70;99.90
64685;DHT22;51109;47.414;18.954;2024-02-04T14:12:28;12.70;99.90
64685;DHT22;51109;47.414;18.954;2024-02-04T14:14:55;12.80;99.90
64685;DHT22;51109;47.414;18.954;2024-02-04T14:17:21;12.80;99.90
64685;DHT22;51109;47.414;18.954;2024-02-04T14:19:46;12.80;99.90
64685;DHT22;51109;47.414;18.954;2024-02-04T14:22:16;12.80;99.90
64685;DHT22;51109;47.414;18.954;2024-02-04T14:24:46;12.80;99.90
64685;DHT22;51109;47.414;18.954;2024-02-04T14:27:12;12.90;99.90
64685;DHT22;51109;47.414;18.954;2024-02-04T14:29:38;12.90;99.90
64685;DHT22;51109;47.414;18.954;2024-02-04T14:32:04;13.00;99.90
64685;DHT22;51109;47.414;18.954;2024-02-04T14:34:30;12.90;99.90
64685;DHT22;51109;47.414;18.954;2024-02-04T14:36:56;13.00;99.90
64685;DHT22;51109;47.414;18.954;2024-02-04T14:39:22;12.90;99.90
64685;DHT22;51109;47.414;18.954;2024-02-04T14:41:48;12.80;99.90
64685;DHT22;51109;47.414;18.954;2024-02-04T14:44:14;12.90;99.90
64685;DHT22;51109;47.414;18.954;2024-02-04T14:46:40;12.60;99.90
64685;DHT22;51109;47.414;18.954;2024-02-04T14:49:06;12.70;99.90
64685;DHT22;51109;47.414;18.954;2024-02-04T14:51:32;12.60;99.90
64685;DHT22;51109;47.414;18.954;2024-02-04T14:53:58;12.60;99.90
64685;DHT22;51109;47.414;18.954;2024-02-04T14:56:24;12.50;99.90
64685;DHT22;51109;47.414;18.954;2024-02-04T14:58:50;12.50;99.90
64685;DHT22;51109;47.414;18.954;2024-02-04T15:01:16;12.40;99.90
64685;DHT22;51109;47.414;18.954;2024-02-04T15:03:43;12.30;99.90
64685;DHT22;51109;47.414;18.954;2024-02-04T15:06:09;12.30;99.90
64685;DHT22;51109;47.414;18.954;2024-02-04T15:08:34;12.20;99.90
64685;DHT22;51109;47.414;18.954;2024-02-04T15:11:00;12.10;99.90
64685;DHT22;51109;47.414;18.954;2024-02-04T15:13:26;12.10;99.90
64685;DHT22;51109;47.414;18.954;2024-02-04T15:15:53;12.10;99.90
64685;DHT22;51109;47.414;18.954;2024-02-04T15:18:19;12.10;99.90
64685;DHT22;51109;47.414;18.954;2024-02-04T15:20:45;12.10;99.90
64685;DHT22;51109;47.414;18.954;2024-02-04T15:23:11;12.10;99.90
64685;DHT22;51109;47.414;18.954;2024-02-04T15:25:37;12.10;99.90
64685;DHT22;51109;47.414;18.954;2024-02-04T15:28:04;12.10;99.90
64685;DHT22;51109;47.414;18.954;2024-02-04T15:30:31;12.00;99.90
64685;DHT22;51109;47.414;18.954;2024-02-04T15:32:58;12.00;99.90
64685;DHT22;51109;47.414;18.954;2024-02-04T15:35:24;11.90;99.90
64685;DHT22;51109;47.414;18.954;2024-02-04T15:37:51;11.80;99.90
64685;DHT22;51109;47.414;18.954;2024-02-04T15:40:17;11.80;99.90
64685;DHT22;51109;47.414;18.954;2024-02-04T15:42:44;11.70;99.90